NOZ56MG ENGM-EDDM
Flight info
| Callsign | NOZ56MG |
|---|---|
| Flight time | N/A |
| Altitude | 35000 |
| Route | OKSAT L996 KELIN DCT NEDIK DCT SODRO T703 LULAR T105 LANDU LANDU2B |
| Aircraft | B738/M-SDE2E3FGHIRWXY/LB1 |
Departure
| Time | N/A |
|---|---|
| Airport | Oslo-Gardermoen International Airport (ENGM) |
Arrival
| Time | 2026-05-05 15:09 |
|---|---|
| Airport | Munich Airport (EDDM) |
| Time | Latitude | Longitude | Altitude | Speed | Heading |
|---|---|---|---|---|---|
| 2026-05-05 14:13 | 53.46940 | 12.00070 | 34905 ft | 418 kts | 188° |
| 2026-05-05 14:13 | 53.41138 | 11.99701 | 34909 ft | 417 kts | 188° |
| 2026-05-05 14:14 | 53.35339 | 11.99343 | 34894 ft | 417 kts | 188° |
| 2026-05-05 14:14 | 53.29547 | 11.98993 | 34898 ft | 416 kts | 188° |
| 2026-05-05 14:15 | 53.23759 | 11.98642 | 34897 ft | 416 kts | 188° |
| 2026-05-05 14:15 | 53.17965 | 11.98285 | 34896 ft | 417 kts | 188° |
| 2026-05-05 14:16 | 53.12162 | 11.97928 | 34872 ft | 418 kts | 188° |
| 2026-05-05 14:16 | 53.07327 | 11.97633 | 34880 ft | 419 kts | 188° |
| 2026-05-05 14:17 | 53.01459 | 11.97278 | 34888 ft | 419 kts | 188° |
| 2026-05-05 14:17 | 52.95681 | 11.96933 | 34887 ft | 418 kts | 188° |
| 2026-05-05 14:18 | 52.89832 | 11.96579 | 34890 ft | 418 kts | 188° |
| 2026-05-05 14:18 | 52.84062 | 11.96233 | 34887 ft | 417 kts | 188° |
| 2026-05-05 14:19 | 52.78274 | 11.95887 | 34880 ft | 416 kts | 188° |
| 2026-05-05 14:19 | 52.72490 | 11.95538 | 34877 ft | 416 kts | 188° |
| 2026-05-05 14:20 | 52.66701 | 11.95191 | 34879 ft | 416 kts | 188° |
| 2026-05-05 14:20 | 52.60908 | 11.94850 | 34874 ft | 416 kts | 187° |
| 2026-05-05 14:21 | 52.55131 | 11.94514 | 34872 ft | 415 kts | 188° |
| 2026-05-05 14:21 | 52.49354 | 11.94169 | 34876 ft | 415 kts | 188° |
| 2026-05-05 14:22 | 52.43587 | 11.93829 | 34868 ft | 415 kts | 188° |
| 2026-05-05 14:22 | 52.37826 | 11.93489 | 34855 ft | 414 kts | 188° |
| 2026-05-05 14:23 | 52.32077 | 11.93150 | 34857 ft | 413 kts | 188° |
| 2026-05-05 14:23 | 52.26338 | 11.92812 | 34861 ft | 412 kts | 188° |
| 2026-05-05 14:24 | 52.20624 | 11.92480 | 34847 ft | 410 kts | 188° |
| 2026-05-05 14:24 | 52.14924 | 11.92147 | 34840 ft | 410 kts | 187° |
| 2026-05-05 14:25 | 52.09222 | 11.91810 | 34854 ft | 410 kts | 187° |
| 2026-05-05 14:25 | 52.03518 | 11.91479 | 34856 ft | 411 kts | 187° |
| 2026-05-05 14:26 | 51.97800 | 11.91149 | 34852 ft | 411 kts | 187° |
| 2026-05-05 14:26 | 51.92079 | 11.90822 | 34850 ft | 412 kts | 187° |
| 2026-05-05 14:27 | 51.86355 | 11.90494 | 34845 ft | 412 kts | 187° |
| 2026-05-05 14:27 | 51.80628 | 11.90164 | 34852 ft | 412 kts | 187° |
| 2026-05-05 14:28 | 51.74887 | 11.89835 | 34851 ft | 413 kts | 187° |
| 2026-05-05 14:28 | 51.69181 | 11.89509 | 34846 ft | 413 kts | 187° |
| 2026-05-05 14:29 | 51.63397 | 11.89174 | 34839 ft | 413 kts | 186° |
| 2026-05-05 14:29 | 51.57693 | 11.88855 | 34836 ft | 413 kts | 186° |
| 2026-05-05 14:30 | 51.51954 | 11.88531 | 34845 ft | 412 kts | 186° |
| 2026-05-05 14:30 | 51.46230 | 11.88208 | 34836 ft | 411 kts | 186° |
| 2026-05-05 14:31 | 51.40519 | 11.87888 | 34840 ft | 410 kts | 186° |
| 2026-05-05 14:31 | 51.34824 | 11.87567 | 34834 ft | 409 kts | 186° |
| 2026-05-05 14:32 | 51.29139 | 11.87247 | 34835 ft | 409 kts | 186° |
| 2026-05-05 14:32 | 51.23422 | 11.86928 | 34836 ft | 408 kts | 186° |
| 2026-05-05 14:33 | 51.17752 | 11.86611 | 34819 ft | 407 kts | 186° |
| 2026-05-05 14:33 | 51.12085 | 11.86295 | 34829 ft | 407 kts | 186° |
| 2026-05-05 14:34 | 51.06420 | 11.85981 | 34829 ft | 408 kts | 186° |
| 2026-05-05 14:34 | 51.00784 | 11.85669 | 34821 ft | 408 kts | 186° |
| 2026-05-05 14:35 | 50.95111 | 11.85355 | 34821 ft | 408 kts | 186° |
| 2026-05-05 14:35 | 50.89439 | 11.85043 | 34811 ft | 408 kts | 185° |
| 2026-05-05 14:36 | 50.83716 | 11.84728 | 34826 ft | 409 kts | 185° |
| 2026-05-05 14:36 | 50.78054 | 11.84415 | 34823 ft | 411 kts | 185° |
| 2026-05-05 14:37 | 50.72338 | 11.84102 | 34807 ft | 411 kts | 185° |
| 2026-05-05 14:37 | 50.66590 | 11.83782 | 34807 ft | 414 kts | 185° |
| 2026-05-05 14:38 | 50.60835 | 11.83474 | 34812 ft | 414 kts | 185° |
| 2026-05-05 14:38 | 50.55085 | 11.83163 | 34815 ft | 413 kts | 185° |
| 2026-05-05 14:39 | 50.49331 | 11.82908 | 34805 ft | 416 kts | 181° |
| 2026-05-05 14:39 | 50.43618 | 11.84586 | 34808 ft | 423 kts | 164° |
| 2026-05-05 14:40 | 50.38194 | 11.88231 | 34830 ft | 424 kts | 160° |
| 2026-05-05 14:40 | 50.32801 | 11.91967 | 34832 ft | 423 kts | 161° |
| 2026-05-05 14:41 | 50.27417 | 11.95629 | 34817 ft | 421 kts | 161° |
| 2026-05-05 14:41 | 50.22035 | 11.99236 | 34832 ft | 420 kts | 161° |
| 2026-05-05 14:42 | 50.16665 | 12.02838 | 34811 ft | 420 kts | 160° |
| 2026-05-05 14:42 | 50.11297 | 12.06440 | 34803 ft | 420 kts | 160° |
| 2026-05-05 14:43 | 50.08610 | 12.08239 | 34638 ft | 423 kts | 161° |
| 2026-05-05 14:43 | 50.05889 | 12.10057 | 34116 ft | 425 kts | 160° |
| 2026-05-05 14:43 | 50.03205 | 12.11850 | 33768 ft | 417 kts | 161° |
| 2026-05-05 14:43 | 50.00544 | 12.13622 | 33271 ft | 414 kts | 161° |
| 2026-05-05 14:44 | 49.97913 | 12.15371 | 32859 ft | 408 kts | 161° |
| 2026-05-05 14:44 | 49.95313 | 12.17098 | 32420 ft | 404 kts | 161° |
| 2026-05-05 14:44 | 49.92741 | 12.18804 | 32009 ft | 400 kts | 161° |
| 2026-05-05 14:44 | 49.90191 | 12.20494 | 31592 ft | 397 kts | 161° |
| 2026-05-05 14:45 | 49.87664 | 12.22167 | 31177 ft | 393 kts | 161° |
| 2026-05-05 14:45 | 49.85155 | 12.23826 | 30751 ft | 391 kts | 161° |
| 2026-05-05 14:45 | 49.82666 | 12.25470 | 30371 ft | 388 kts | 161° |
| 2026-05-05 14:45 | 49.81034 | 12.26546 | 30182 ft | 383 kts | 161° |
| 2026-05-05 14:46 | 49.77765 | 12.28707 | 29638 ft | 380 kts | 161° |
| 2026-05-05 14:46 | 49.75348 | 12.30298 | 29188 ft | 376 kts | 161° |
| 2026-05-05 14:46 | 49.72962 | 12.31904 | 28777 ft | 373 kts | 158° |
| 2026-05-05 14:46 | 49.70734 | 12.33959 | 28334 ft | 376 kts | 148° |
| 2026-05-05 14:47 | 49.68650 | 12.36395 | 27894 ft | 374 kts | 147° |
| 2026-05-05 14:47 | 49.66598 | 12.38838 | 27465 ft | 372 kts | 146° |
| 2026-05-05 14:47 | 49.64558 | 12.41264 | 27051 ft | 369 kts | 146° |
| 2026-05-05 14:47 | 49.62528 | 12.43661 | 26655 ft | 366 kts | 147° |
| 2026-05-05 14:48 | 49.60507 | 12.46033 | 26260 ft | 364 kts | 146° |
| 2026-05-05 14:48 | 49.58496 | 12.48382 | 25866 ft | 361 kts | 146° |
| 2026-05-05 14:48 | 49.56496 | 12.50710 | 25480 ft | 359 kts | 146° |
| 2026-05-05 14:48 | 49.54508 | 12.53018 | 25088 ft | 357 kts | 146° |
| 2026-05-05 14:49 | 49.52532 | 12.55312 | 24707 ft | 355 kts | 146° |
| 2026-05-05 14:49 | 49.50567 | 12.57591 | 24333 ft | 353 kts | 146° |
| 2026-05-05 14:49 | 49.48614 | 12.59854 | 23958 ft | 351 kts | 146° |
| 2026-05-05 14:49 | 49.46668 | 12.62106 | 23570 ft | 349 kts | 146° |
| 2026-05-05 14:50 | 49.44731 | 12.64343 | 23160 ft | 348 kts | 145° |
| 2026-05-05 14:50 | 49.42840 | 12.66660 | 22607 ft | 350 kts | 140° |
| 2026-05-05 14:50 | 49.41024 | 12.69208 | 22005 ft | 352 kts | 144° |
| 2026-05-05 14:50 | 49.38868 | 12.70803 | 21633 ft | 342 kts | 171° |
| 2026-05-05 14:51 | 49.36519 | 12.70888 | 21287 ft | 336 kts | 188° |
| 2026-05-05 14:51 | 49.34268 | 12.70001 | 20889 ft | 334 kts | 201° |
| 2026-05-05 14:51 | 49.32127 | 12.68674 | 20518 ft | 332 kts | 202° |
| 2026-05-05 14:51 | 49.30011 | 12.67287 | 20131 ft | 330 kts | 203° |
| 2026-05-05 14:52 | 49.27908 | 12.65896 | 19759 ft | 328 kts | 203° |
| 2026-05-05 14:52 | 49.25813 | 12.64518 | 19308 ft | 329 kts | 202° |
| 2026-05-05 14:52 | 49.23707 | 12.63147 | 18863 ft | 329 kts | 202° |
| 2026-05-05 14:52 | 49.21601 | 12.61785 | 18498 ft | 327 kts | 202° |
| 2026-05-05 14:53 | 49.19509 | 12.60444 | 18152 ft | 325 kts | 202° |
| 2026-05-05 14:53 | 49.17429 | 12.59114 | 17763 ft | 323 kts | 202° |
| 2026-05-05 14:53 | 49.15361 | 12.57794 | 17343 ft | 321 kts | 202° |
| 2026-05-05 14:53 | 49.13302 | 12.56484 | 16915 ft | 320 kts | 202° |
| 2026-05-05 14:54 | 49.11252 | 12.55182 | 16510 ft | 318 kts | 202° |
| 2026-05-05 14:54 | 49.09212 | 12.53889 | 16115 ft | 317 kts | 202° |
| 2026-05-05 14:54 | 49.07181 | 12.52601 | 15721 ft | 316 kts | 202° |
| 2026-05-05 14:54 | 49.05181 | 12.51333 | 15313 ft | 315 kts | 202° |
| 2026-05-05 14:55 | 49.03126 | 12.50033 | 14876 ft | 316 kts | 202° |
| 2026-05-05 14:55 | 49.01095 | 12.48747 | 14431 ft | 317 kts | 202° |
| 2026-05-05 14:55 | 48.99086 | 12.47476 | 14044 ft | 316 kts | 202° |
| 2026-05-05 14:55 | 48.97061 | 12.46197 | 13689 ft | 315 kts | 202° |
| 2026-05-05 14:56 | 48.95045 | 12.44925 | 13294 ft | 313 kts | 202° |
| 2026-05-05 14:56 | 48.93042 | 12.43663 | 12915 ft | 311 kts | 202° |
| 2026-05-05 14:56 | 48.91039 | 12.42403 | 12555 ft | 310 kts | 202° |
| 2026-05-05 14:56 | 48.89058 | 12.41158 | 12201 ft | 307 kts | 202° |
| 2026-05-05 14:57 | 48.87095 | 12.39925 | 11863 ft | 304 kts | 202° |
| 2026-05-05 14:57 | 48.85149 | 12.38701 | 11525 ft | 301 kts | 202° |
| 2026-05-05 14:57 | 48.83223 | 12.37492 | 11195 ft | 299 kts | 202° |
| 2026-05-05 14:57 | 48.81311 | 12.36293 | 10859 ft | 297 kts | 202° |
| 2026-05-05 14:58 | 48.79402 | 12.35100 | 10535 ft | 296 kts | 202° |
| 2026-05-05 14:58 | 48.78118 | 12.34411 | 10337 ft | 294 kts | 196° |
| 2026-05-05 14:58 | 48.75488 | 12.33410 | 10029 ft | 287 kts | 194° |
| 2026-05-05 14:58 | 48.73561 | 12.32711 | 9820 ft | 281 kts | 194° |
| 2026-05-05 14:59 | 48.71678 | 12.32004 | 9691 ft | 273 kts | 194° |
| 2026-05-05 14:59 | 48.70461 | 12.31540 | 9398 ft | 276 kts | 195° |
| 2026-05-05 14:59 | 48.67979 | 12.30590 | 8964 ft | 275 kts | 194° |
| 2026-05-05 14:59 | 48.66749 | 12.30118 | 8751 ft | 274 kts | 195° |
| 2026-05-05 15:00 | 48.64907 | 12.29414 | 8445 ft | 272 kts | 195° |
| 2026-05-05 15:00 | 48.63081 | 12.28715 | 8162 ft | 270 kts | 194° |
| 2026-05-05 15:00 | 48.61265 | 12.28019 | 7862 ft | 268 kts | 194° |
| 2026-05-05 15:00 | 48.59480 | 12.27281 | 7594 ft | 263 kts | 201° |
| 2026-05-05 15:01 | 48.57856 | 12.26068 | 7329 ft | 260 kts | 209° |
| 2026-05-05 15:01 | 48.56303 | 12.24693 | 7056 ft | 258 kts | 211° |
| 2026-05-05 15:01 | 48.54770 | 12.23312 | 6787 ft | 256 kts | 211° |
| 2026-05-05 15:01 | 48.53240 | 12.21946 | 6501 ft | 256 kts | 211° |
| 2026-05-05 15:02 | 48.51709 | 12.20593 | 6223 ft | 254 kts | 211° |
| 2026-05-05 15:02 | 48.50184 | 12.19259 | 6010 ft | 251 kts | 210° |
| 2026-05-05 15:02 | 48.48687 | 12.17958 | 5879 ft | 248 kts | 211° |
| 2026-05-05 15:02 | 48.47206 | 12.16677 | 5759 ft | 244 kts | 211° |
| 2026-05-05 15:03 | 48.45760 | 12.15428 | 5662 ft | 233 kts | 211° |
| 2026-05-05 15:03 | 48.44392 | 12.14253 | 5561 ft | 220 kts | 211° |
| 2026-05-05 15:03 | 48.43091 | 12.13135 | 5478 ft | 212 kts | 211° |
| 2026-05-05 15:03 | 48.41781 | 12.12015 | 5284 ft | 221 kts | 211° |
| 2026-05-05 15:04 | 48.40435 | 12.10858 | 5049 ft | 224 kts | 211° |
| 2026-05-05 15:04 | 48.39188 | 12.09559 | 4879 ft | 210 kts | 231° |
| 2026-05-05 15:04 | 48.38699 | 12.07625 | 4748 ft | 195 kts | 266° |
| 2026-05-05 15:04 | 48.38592 | 12.05622 | 4492 ft | 191 kts | 261° |
| 2026-05-05 15:05 | 48.38231 | 12.01835 | 4010 ft | 180 kts | 263° |
| 2026-05-05 15:05 | 48.38080 | 11.99965 | 3771 ft | 183 kts | 264° |
| 2026-05-05 15:05 | 48.37931 | 11.98074 | 3508 ft | 176 kts | 263° |
| 2026-05-05 15:06 | 48.37799 | 11.96362 | 3325 ft | 156 kts | 264° |
| 2026-05-05 15:06 | 48.37677 | 11.94776 | 3107 ft | 149 kts | 262° |
| 2026-05-05 15:06 | 48.37549 | 11.93232 | 2926 ft | 148 kts | 263° |
| 2026-05-05 15:06 | 48.37435 | 11.91706 | 2745 ft | 147 kts | 263° |
| 2026-05-05 15:07 | 48.37319 | 11.90167 | 2533 ft | 148 kts | 262° |
| 2026-05-05 15:07 | 48.37192 | 11.88609 | 2340 ft | 152 kts | 263° |
| 2026-05-05 15:07 | 48.37067 | 11.87035 | 2122 ft | 151 kts | 264° |
| 2026-05-05 15:07 | 48.36953 | 11.85483 | 1918 ft | 148 kts | 264° |
| 2026-05-05 15:08 | 48.36833 | 11.83952 | 1765 ft | 147 kts | 263° |
| 2026-05-05 15:08 | 48.36711 | 11.82411 | 1559 ft | 149 kts | 264° |
| 2026-05-05 15:08 | 48.36598 | 11.80923 | 1475 ft | 127 kts | 263° |
| 2026-05-05 15:08 | 48.36520 | 11.79927 | 1484 ft | 64 kts | 264° |
| 2026-05-05 15:09 | 48.36478 | 11.79381 | 1479 ft | 49 kts | 264° |
| 2026-05-05 15:09 | 48.36421 | 11.78972 | 1482 ft | 31 kts | 243° |
| 2026-05-05 15:09 | 48.36316 | 11.78737 | 1480 ft | 24 kts | 233° |
| 2026-05-05 15:09 | 48.36260 | 11.78625 | 1476 ft | 1 kts | 233° |
| 2026-05-05 15:10 | 48.36256 | 11.78616 | 1484 ft | 1 kts | 234° |
| 2026-05-05 15:10 | 48.36253 | 11.78610 | 1484 ft | 1 kts | 234° |
| 2026-05-05 15:10 | 48.36250 | 11.78604 | 1484 ft | 2 kts | 233° |
| 2026-05-05 15:10 | 48.36233 | 11.78571 | 1474 ft | 7 kts | 232° |
| 2026-05-05 15:11 | 48.36193 | 11.78487 | 1474 ft | 13 kts | 234° |
| 2026-05-05 15:11 | 48.36135 | 11.78362 | 1476 ft | 15 kts | 244° |
| 2026-05-05 15:11 | 48.36116 | 11.78206 | 1484 ft | 15 kts | 264° |
| 2026-05-05 15:11 | 48.36104 | 11.78039 | 1479 ft | 17 kts | 263° |
| 2026-05-05 15:12 | 48.36090 | 11.77856 | 1484 ft | 18 kts | 263° |
| 2026-05-05 15:12 | 48.36067 | 11.77685 | 1478 ft | 16 kts | 232° |
| 2026-05-05 15:12 | 48.35974 | 11.77674 | 1475 ft | 13 kts | 170° |
| 2026-05-05 15:12 | 48.35887 | 11.77692 | 1484 ft | 12 kts | 173° |
| 2026-05-05 15:13 | 48.35802 | 11.77704 | 1479 ft | 12 kts | 175° |
| 2026-05-05 15:13 | 48.35717 | 11.77711 | 1483 ft | 13 kts | 186° |
| 2026-05-05 15:13 | 48.35634 | 11.77707 | 1479 ft | 8 kts | 177° |
| 2026-05-05 15:13 | 48.35610 | 11.77646 | 1475 ft | 6 kts | 264° |
| 2026-05-05 15:14 | 48.35609 | 11.77636 | 1484 ft | 0 kts | 264° |